sensor_id;sensor_type;location;lat;lon;timestamp;P1;durP1;ratioP1;P2;durP2;ratioP2
73113;SDS011;61301;51.956;5.876;2023-04-09T00:00:42;29.75;;;20.92;;
73113;SDS011;61301;51.956;5.876;2023-04-09T00:03:09;31.90;;;21.27;;
73113;SDS011;61301;51.956;5.876;2023-04-09T00:05:38;28.15;;;20.55;;
73113;SDS011;61301;51.956;5.876;2023-04-09T00:08:05;25.27;;;17.83;;
73113;SDS011;61301;51.956;5.876;2023-04-09T00:10:31;23.88;;;18.20;;
73113;SDS011;61301;51.956;5.876;2023-04-09T00:12:57;21.98;;;15.90;;
73113;SDS011;61301;51.956;5.876;2023-04-09T00:15:23;24.85;;;18.88;;
73113;SDS011;61301;51.956;5.876;2023-04-09T00:17:49;27.25;;;19.42;;
73113;SDS011;61301;51.956;5.876;2023-04-09T00:20:15;26.02;;;19.63;;
73113;SDS011;61301;51.956;5.876;2023-04-09T00:22:41;24.73;;;16.50;;
73113;SDS011;61301;51.956;5.876;2023-04-09T00:25:07;25.42;;;17.48;;
73113;SDS011;61301;51.956;5.876;2023-04-09T00:27:33;17.33;;;13.20;;
73113;SDS011;61301;51.956;5.876;2023-04-09T00:29:59;26.25;;;20.02;;
73113;SDS011;61301;51.956;5.876;2023-04-09T00:32:25;25.42;;;18.73;;
73113;SDS011;61301;51.956;5.876;2023-04-09T00:34:52;19.70;;;15.13;;
73113;SDS011;61301;51.956;5.876;2023-04-09T00:37:18;24.13;;;18.13;;
73113;SDS011;61301;51.956;5.876;2023-04-09T00:39:44;26.40;;;19.15;;
73113;SDS011;61301;51.956;5.876;2023-04-09T00:42:11;23.05;;;16.98;;
73113;SDS011;61301;51.956;5.876;2023-04-09T00:44:37;14.95;;;11.40;;
73113;SDS011;61301;51.956;5.876;2023-04-09T00:47:03;20.98;;;14.60;;
73113;SDS011;61301;51.956;5.876;2023-04-09T00:49:29;28.08;;;20.05;;
73113;SDS011;61301;51.956;5.876;2023-04-09T00:51:55;27.23;;;20.10;;
73113;SDS011;61301;51.956;5.876;2023-04-09T00:54:21;25.63;;;17.67;;
73113;SDS011;61301;51.956;5.876;2023-04-09T00:56:48;30.30;;;21.70;;
73113;SDS011;61301;51.956;5.876;2023-04-09T00:59:14;29.10;;;21.77;;
73113;SDS011;61301;51.956;5.876;2023-04-09T01:01:40;29.40;;;21.35;;
73113;SDS011;61301;51.956;5.876;2023-04-09T01:04:06;30.27;;;21.30;;
73113;SDS011;61301;51.956;5.876;2023-04-09T01:06:50;26.95;;;19.83;;
73113;SDS011;61301;51.956;5.876;2023-04-09T01:15:02;25.88;;;18.23;;
73113;SDS011;61301;51.956;5.876;2023-04-09T01:20:26;25.80;;;19.00;;
73113;SDS011;61301;51.956;5.876;2023-04-09T01:28:17;22.02;;;16.58;;
73113;SDS011;61301;51.956;5.876;2023-04-09T01:30:49;26.95;;;18.95;;
73113;SDS011;61301;51.956;5.876;2023-04-09T01:33:17;27.95;;;20.73;;
73113;SDS011;61301;51.956;5.876;2023-04-09T01:35:45;26.00;;;18.65;;
73113;SDS011;61301;51.956;5.876;2023-04-09T01:38:13;27.23;;;18.23;;
73113;SDS011;61301;51.956;5.876;2023-04-09T01:40:42;23.08;;;15.95;;
73113;SDS011;61301;51.956;5.876;2023-04-09T01:43:09;20.40;;;15.00;;
73113;SDS011;61301;51.956;5.876;2023-04-09T01:45:35;17.60;;;14.45;;
73113;SDS011;61301;51.956;5.876;2023-04-09T01:48:02;16.77;;;12.95;;
73113;SDS011;61301;51.956;5.876;2023-04-09T01:50:29;20.38;;;14.75;;
73113;SDS011;61301;51.956;5.876;2023-04-09T01:52:56;24.10;;;17.83;;
73113;SDS011;61301;51.956;5.876;2023-04-09T01:55:22;26.48;;;19.35;;
73113;SDS011;61301;51.956;5.876;2023-04-09T01:57:48;23.63;;;18.02;;
73113;SDS011;61301;51.956;5.876;2023-04-09T02:00:14;24.27;;;18.40;;
73113;SDS011;61301;51.956;5.876;2023-04-09T02:05:35;21.50;;;17.83;;
73113;SDS011;61301;51.956;5.876;2023-04-09T02:08:05;22.05;;;16.13;;
73113;SDS011;61301;51.956;5.876;2023-04-09T02:10:34;15.55;;;12.10;;
73113;SDS011;61301;51.956;5.876;2023-04-09T02:13:02;21.17;;;16.73;;
73113;SDS011;61301;51.956;5.876;2023-04-09T02:15:30;17.58;;;13.93;;
73113;SDS011;61301;51.956;5.876;2023-04-09T02:17:58;23.63;;;18.05;;
73113;SDS011;61301;51.956;5.876;2023-04-09T02:20:25;18.17;;;13.52;;
73113;SDS011;61301;51.956;5.876;2023-04-09T02:22:51;21.90;;;14.80;;
73113;SDS011;61301;51.956;5.876;2023-04-09T02:25:17;19.67;;;13.90;;
73113;SDS011;61301;51.956;5.876;2023-04-09T02:27:44;24.85;;;17.10;;
73113;SDS011;61301;51.956;5.876;2023-04-09T02:30:10;19.88;;;14.88;;
73113;SDS011;61301;51.956;5.876;2023-04-09T02:32:36;18.42;;;14.10;;
73113;SDS011;61301;51.956;5.876;2023-04-09T02:35:02;19.73;;;13.85;;
73113;SDS011;61301;51.956;5.876;2023-04-09T02:37:28;17.02;;;12.18;;
73113;SDS011;61301;51.956;5.876;2023-04-09T02:39:54;21.73;;;16.80;;
73113;SDS011;61301;51.956;5.876;2023-04-09T02:42:20;22.02;;;15.57;;
73113;SDS011;61301;51.956;5.876;2023-04-09T02:44:47;20.20;;;15.80;;
73113;SDS011;61301;51.956;5.876;2023-04-09T02:47:13;20.55;;;15.95;;
73113;SDS011;61301;51.956;5.876;2023-04-09T02:49:40;21.17;;;16.38;;
73113;SDS011;61301;51.956;5.876;2023-04-09T02:52:08;20.83;;;15.85;;
73113;SDS011;61301;51.956;5.876;2023-04-09T02:54:35;19.50;;;15.18;;
73113;SDS011;61301;51.956;5.876;2023-04-09T02:57:01;23.77;;;17.35;;
73113;SDS011;61301;51.956;5.876;2023-04-09T02:59:27;22.55;;;17.40;;
73113;SDS011;61301;51.956;5.876;2023-04-09T03:01:53;26.27;;;17.58;;
73113;SDS011;61301;51.956;5.876;2023-04-09T03:04:19;23.05;;;16.60;;
73113;SDS011;61301;51.956;5.876;2023-04-09T03:06:45;23.00;;;17.55;;
73113;SDS011;61301;51.956;5.876;2023-04-09T03:09:11;23.08;;;17.20;;
73113;SDS011;61301;51.956;5.876;2023-04-09T03:11:38;26.38;;;18.25;;
73113;SDS011;61301;51.956;5.876;2023-04-09T03:14:04;26.42;;;18.35;;
73113;SDS011;61301;51.956;5.876;2023-04-09T03:16:30;20.23;;;16.02;;
73113;SDS011;61301;51.956;5.876;2023-04-09T03:18:56;23.20;;;17.83;;
73113;SDS011;61301;51.956;5.876;2023-04-09T03:21:22;19.55;;;14.68;;
73113;SDS011;61301;51.956;5.876;2023-04-09T03:23:49;24.23;;;16.13;;
73113;SDS011;61301;51.956;5.876;2023-04-09T03:26:15;24.48;;;17.63;;
73113;SDS011;61301;51.956;5.876;2023-04-09T03:28:48;20.20;;;14.80;;
73113;SDS011;61301;51.956;5.876;2023-04-09T03:31:15;19.00;;;13.52;;
73113;SDS011;61301;51.956;5.876;2023-04-09T03:33:43;18.08;;;12.82;;
73113;SDS011;61301;51.956;5.876;2023-04-09T03:36:10;23.55;;;17.73;;
73113;SDS011;61301;51.956;5.876;2023-04-09T03:38:52;24.70;;;18.27;;
73113;SDS011;61301;51.956;5.876;2023-04-09T03:41:25;31.58;;;24.30;;
73113;SDS011;61301;51.956;5.876;2023-04-09T03:43:52;28.42;;;21.70;;
73113;SDS011;61301;51.956;5.876;2023-04-09T03:46:23;27.02;;;19.25;;
73113;SDS011;61301;51.956;5.876;2023-04-09T03:48:50;25.27;;;17.58;;
73113;SDS011;61301;51.956;5.876;2023-04-09T03:51:16;23.25;;;16.48;;
73113;SDS011;61301;51.956;5.876;2023-04-09T03:53:49;22.67;;;17.13;;
73113;SDS011;61301;51.956;5.876;2023-04-09T03:56:15;26.38;;;20.05;;
73113;SDS011;61301;51.956;5.876;2023-04-09T03:58:41;27.52;;;20.17;;
73113;SDS011;61301;51.956;5.876;2023-04-09T04:01:10;22.83;;;16.50;;
73113;SDS011;61301;51.956;5.876;2023-04-09T04:03:42;23.90;;;17.83;;
73113;SDS011;61301;51.956;5.876;2023-04-09T04:06:20;25.98;;;18.88;;
73113;SDS011;61301;51.956;5.876;2023-04-09T04:09:04;24.92;;;18.02;;
73113;SDS011;61301;51.956;5.876;2023-04-09T04:11:53;21.70;;;15.45;;
73113;SDS011;61301;51.956;5.876;2023-04-09T04:14:23;25.27;;;17.73;;
73113;SDS011;61301;51.956;5.876;2023-04-09T04:16:55;21.52;;;16.50;;
73113;SDS011;61301;51.956;5.876;2023-04-09T04:19:26;23.65;;;17.55;;
73113;SDS011;61301;51.956;5.876;2023-04-09T04:21:53;26.98;;;19.60;;
73113;SDS011;61301;51.956;5.876;2023-04-09T04:24:19;27.10;;;20.27;;
73113;SDS011;61301;51.956;5.876;2023-04-09T04:26:46;28.60;;;21.85;;
73113;SDS011;61301;51.956;5.876;2023-04-09T04:29:16;25.40;;;18.83;;
73113;SDS011;61301;51.956;5.876;2023-04-09T04:31:49;26.05;;;19.00;;
73113;SDS011;61301;51.956;5.876;2023-04-09T04:34:18;26.15;;;20.23;;
73113;SDS011;61301;51.956;5.876;2023-04-09T04:36:49;27.10;;;20.40;;
73113;SDS011;61301;51.956;5.876;2023-04-09T04:39:16;28.80;;;20.05;;
73113;SDS011;61301;51.956;5.876;2023-04-09T04:41:51;26.25;;;19.30;;
73113;SDS011;61301;51.956;5.876;2023-04-09T04:44:21;27.33;;;18.40;;
73113;SDS011;61301;51.956;5.876;2023-04-09T04:46:55;23.98;;;17.35;;
73113;SDS011;61301;51.956;5.876;2023-04-09T04:49:21;26.58;;;18.50;;
73113;SDS011;61301;51.956;5.876;2023-04-09T04:51:47;26.23;;;19.33;;
73113;SDS011;61301;51.956;5.876;2023-04-09T04:54:15;22.13;;;16.35;;
73113;SDS011;61301;51.956;5.876;2023-04-09T04:56:48;20.63;;;16.20;;
73113;SDS011;61301;51.956;5.876;2023-04-09T04:59:40;23.30;;;16.65;;
73113;SDS011;61301;51.956;5.876;2023-04-09T05:02:09;24.13;;;17.90;;
73113;SDS011;61301;51.956;5.876;2023-04-09T05:04:46;27.80;;;19.92;;
73113;SDS011;61301;51.956;5.876;2023-04-09T05:07:15;26.85;;;17.90;;
73113;SDS011;61301;51.956;5.876;2023-04-09T05:09:48;23.87;;;18.27;;
73113;SDS011;61301;51.956;5.876;2023-04-09T05:12:14;22.95;;;17.38;;
73113;SDS011;61301;51.956;5.876;2023-04-09T05:14:47;22.10;;;15.67;;
73113;SDS011;61301;51.956;5.876;2023-04-09T05:17:13;23.67;;;16.30;;
73113;SDS011;61301;51.956;5.876;2023-04-09T05:19:43;25.70;;;17.58;;
73113;SDS011;61301;51.956;5.876;2023-04-09T05:22:10;24.75;;;17.98;;
73113;SDS011;61301;51.956;5.876;2023-04-09T05:24:38;20.92;;;14.77;;
73113;SDS011;61301;51.956;5.876;2023-04-09T05:27:07;24.90;;;18.55;;
73113;SDS011;61301;51.956;5.876;2023-04-09T05:29:34;22.25;;;15.98;;
73113;SDS011;61301;51.956;5.876;2023-04-09T05:32:01;16.85;;;12.50;;
73113;SDS011;61301;51.956;5.876;2023-04-09T05:34:34;25.02;;;18.15;;
73113;SDS011;61301;51.956;5.876;2023-04-09T05:37:00;26.70;;;18.98;;
73113;SDS011;61301;51.956;5.876;2023-04-09T05:39:27;26.80;;;19.50;;
73113;SDS011;61301;51.956;5.876;2023-04-09T05:41:54;24.40;;;16.42;;
73113;SDS011;61301;51.956;5.876;2023-04-09T05:44:30;29.75;;;19.08;;
73113;SDS011;61301;51.956;5.876;2023-04-09T05:47:05;26.95;;;19.10;;
73113;SDS011;61301;51.956;5.876;2023-04-09T05:49:38;33.08;;;20.88;;
73113;SDS011;61301;51.956;5.876;2023-04-09T05:52:09;24.08;;;17.55;;
73113;SDS011;61301;51.956;5.876;2023-04-09T05:54:35;30.60;;;20.48;;
73113;SDS011;61301;51.956;5.876;2023-04-09T05:57:03;27.92;;;20.25;;
73113;SDS011;61301;51.956;5.876;2023-04-09T05:59:34;26.13;;;18.60;;
73113;SDS011;61301;51.956;5.876;2023-04-09T06:02:00;31.58;;;20.20;;
73113;SDS011;61301;51.956;5.876;2023-04-09T06:04:27;28.52;;;20.95;;
73113;SDS011;61301;51.956;5.876;2023-04-09T06:06:53;29.33;;;19.08;;
73113;SDS011;61301;51.956;5.876;2023-04-09T06:09:20;26.42;;;19.23;;
73113;SDS011;61301;51.956;5.876;2023-04-09T06:11:46;25.48;;;17.42;;
73113;SDS011;61301;51.956;5.876;2023-04-09T06:14:12;32.83;;;21.92;;
73113;SDS011;61301;51.956;5.876;2023-04-09T06:16:40;33.15;;;22.00;;
73113;SDS011;61301;51.956;5.876;2023-04-09T06:19:06;31.05;;;19.80;;
73113;SDS011;61301;51.956;5.876;2023-04-09T06:21:32;33.05;;;20.73;;
73113;SDS011;61301;51.956;5.876;2023-04-09T06:23:58;27.17;;;18.17;;
73113;SDS011;61301;51.956;5.876;2023-04-09T06:26:24;30.17;;;19.52;;
73113;SDS011;61301;51.956;5.876;2023-04-09T06:28:50;28.00;;;20.10;;
73113;SDS011;61301;51.956;5.876;2023-04-09T06:31:16;30.70;;;20.67;;
73113;SDS011;61301;51.956;5.876;2023-04-09T06:33:42;28.38;;;19.88;;
73113;SDS011;61301;51.956;5.876;2023-04-09T06:36:09;30.02;;;21.08;;
73113;SDS011;61301;51.956;5.876;2023-04-09T06:38:35;27.48;;;19.55;;
73113;SDS011;61301;51.956;5.876;2023-04-09T06:41:01;28.30;;;18.58;;
73113;SDS011;61301;51.956;5.876;2023-04-09T06:43:28;22.58;;;17.10;;
73113;SDS011;61301;51.956;5.876;2023-04-09T06:45:54;25.75;;;19.13;;
73113;SDS011;61301;51.956;5.876;2023-04-09T06:48:20;29.38;;;20.17;;
73113;SDS011;61301;51.956;5.876;2023-04-09T06:50:46;25.83;;;18.83;;
73113;SDS011;61301;51.956;5.876;2023-04-09T06:53:12;33.78;;;22.80;;
73113;SDS011;61301;51.956;5.876;2023-04-09T06:55:39;30.88;;;20.20;;
73113;SDS011;61301;51.956;5.876;2023-04-09T06:58:05;29.85;;;20.60;;
73113;SDS011;61301;51.956;5.876;2023-04-09T07:00:31;28.02;;;19.45;;
73113;SDS011;61301;51.956;5.876;2023-04-09T07:02:57;31.95;;;20.90;;
73113;SDS011;61301;51.956;5.876;2023-04-09T07:05:23;30.42;;;21.27;;
73113;SDS011;61301;51.956;5.876;2023-04-09T07:07:49;26.45;;;18.13;;
73113;SDS011;61301;51.956;5.876;2023-04-09T07:10:15;28.77;;;19.73;;
73113;SDS011;61301;51.956;5.876;2023-04-09T07:12:41;29.92;;;20.13;;
73113;SDS011;61301;51.956;5.876;2023-04-09T07:15:07;28.50;;;20.98;;
73113;SDS011;61301;51.956;5.876;2023-04-09T07:17:33;32.13;;;21.10;;
73113;SDS011;61301;51.956;5.876;2023-04-09T07:20:00;25.77;;;18.48;;
73113;SDS011;61301;51.956;5.876;2023-04-09T07:22:27;30.48;;;21.27;;
73113;SDS011;61301;51.956;5.876;2023-04-09T07:24:54;33.38;;;22.65;;
73113;SDS011;61301;51.956;5.876;2023-04-09T07:27:24;30.63;;;20.48;;
73113;SDS011;61301;51.956;5.876;2023-04-09T07:29:55;28.15;;;19.73;;
73113;SDS011;61301;51.956;5.876;2023-04-09T07:32:23;28.48;;;19.13;;
73113;SDS011;61301;51.956;5.876;2023-04-09T07:34:50;33.28;;;22.58;;
73113;SDS011;61301;51.956;5.876;2023-04-09T07:37:17;26.48;;;19.05;;
73113;SDS011;61301;51.956;5.876;2023-04-09T07:39:43;24.60;;;16.95;;
73113;SDS011;61301;51.956;5.876;2023-04-09T07:42:09;26.75;;;18.92;;
73113;SDS011;61301;51.956;5.876;2023-04-09T07:44:35;33.13;;;21.35;;
73113;SDS011;61301;51.956;5.876;2023-04-09T07:47:02;27.70;;;20.88;;
73113;SDS011;61301;51.956;5.876;2023-04-09T07:49:29;28.08;;;20.15;;
73113;SDS011;61301;51.956;5.876;2023-04-09T07:51:55;25.90;;;18.73;;
73113;SDS011;61301;51.956;5.876;2023-04-09T07:54:22;25.95;;;18.50;;
73113;SDS011;61301;51.956;5.876;2023-04-09T07:56:48;30.33;;;20.35;;
73113;SDS011;61301;51.956;5.876;2023-04-09T07:59:14;26.17;;;18.63;;
73113;SDS011;61301;51.956;5.876;2023-04-09T08:01:40;27.80;;;20.33;;
73113;SDS011;61301;51.956;5.876;2023-04-09T08:04:07;24.88;;;18.05;;
73113;SDS011;61301;51.956;5.876;2023-04-09T08:06:33;24.90;;;18.85;;
73113;SDS011;61301;51.956;5.876;2023-04-09T08:09:01;20.67;;;16.08;;
73113;SDS011;61301;51.956;5.876;2023-04-09T08:11:27;19.40;;;14.35;;
73113;SDS011;61301;51.956;5.876;2023-04-09T08:13:53;24.02;;;18.08;;
73113;SDS011;61301;51.956;5.876;2023-04-09T08:16:20;25.77;;;19.08;;
73113;SDS011;61301;51.956;5.876;2023-04-09T08:18:48;20.98;;;15.52;;
73113;SDS011;61301;51.956;5.876;2023-04-09T08:21:15;23.17;;;16.58;;
73113;SDS011;61301;51.956;5.876;2023-04-09T08:23:42;23.98;;;17.05;;
73113;SDS011;61301;51.956;5.876;2023-04-09T08:26:08;25.30;;;18.80;;
73113;SDS011;61301;51.956;5.876;2023-04-09T08:28:34;22.45;;;16.83;;
73113;SDS011;61301;51.956;5.876;2023-04-09T08:31:00;25.63;;;18.02;;
73113;SDS011;61301;51.956;5.876;2023-04-09T08:33:26;24.95;;;17.77;;
73113;SDS011;61301;51.956;5.876;2023-04-09T08:35:52;20.63;;;16.23;;
73113;SDS011;61301;51.956;5.876;2023-04-09T08:38:18;26.98;;;18.90;;
73113;SDS011;61301;51.956;5.876;2023-04-09T08:40:45;25.35;;;18.85;;
73113;SDS011;61301;51.956;5.876;2023-04-09T08:43:12;24.10;;;18.45;;
73113;SDS011;61301;51.956;5.876;2023-04-09T08:45:40;25.35;;;18.05;;
73113;SDS011;61301;51.956;5.876;2023-04-09T08:48:08;26.30;;;18.85;;
73113;SDS011;61301;51.956;5.876;2023-04-09T08:50:34;22.73;;;15.85;;
73113;SDS011;61301;51.956;5.876;2023-04-09T08:53:02;24.63;;;17.23;;
73113;SDS011;61301;51.956;5.876;2023-04-09T08:55:29;24.52;;;18.27;;
73113;SDS011;61301;51.956;5.876;2023-04-09T08:58:05;20.45;;;15.90;;
73113;SDS011;61301;51.956;5.876;2023-04-09T09:00:35;22.00;;;15.82;;
73113;SDS011;61301;51.956;5.876;2023-04-09T09:03:06;21.98;;;16.80;;
73113;SDS011;61301;51.956;5.876;2023-04-09T09:08:06;22.10;;;16.10;;
73113;SDS011;61301;51.956;5.876;2023-04-09T09:10:43;23.55;;;17.75;;
73113;SDS011;61301;51.956;5.876;2023-04-09T09:13:21;22.42;;;16.10;;
73113;SDS011;61301;51.956;5.876;2023-04-09T09:15:48;21.83;;;16.95;;
73113;SDS011;61301;51.956;5.876;2023-04-09T09:18:19;22.27;;;16.63;;
73113;SDS011;61301;51.956;5.876;2023-04-09T09:20:46;22.38;;;17.38;;
73113;SDS011;61301;51.956;5.876;2023-04-09T09:23:12;22.13;;;15.55;;
73113;SDS011;61301;51.956;5.876;2023-04-09T09:25:42;20.08;;;15.80;;
73113;SDS011;61301;51.956;5.876;2023-04-09T09:28:09;25.63;;;17.77;;
73113;SDS011;61301;51.956;5.876;2023-04-09T09:30:37;25.00;;;17.38;;
73113;SDS011;61301;51.956;5.876;2023-04-09T09:33:08;21.58;;;16.58;;
73113;SDS011;61301;51.956;5.876;2023-04-09T09:35:48;20.80;;;14.85;;
73113;SDS011;61301;51.956;5.876;2023-04-09T09:38:16;21.77;;;16.35;;
73113;SDS011;61301;51.956;5.876;2023-04-09T09:40:43;20.40;;;14.20;;
73113;SDS011;61301;51.956;5.876;2023-04-09T09:43:09;20.25;;;14.32;;
73113;SDS011;61301;51.956;5.876;2023-04-09T09:45:35;21.02;;;16.33;;
73113;SDS011;61301;51.956;5.876;2023-04-09T09:48:06;22.38;;;16.98;;
73113;SDS011;61301;51.956;5.876;2023-04-09T09:50:33;21.38;;;16.20;;
73113;SDS011;61301;51.956;5.876;2023-04-09T09:53:02;16.17;;;13.85;;
73113;SDS011;61301;51.956;5.876;2023-04-09T09:55:40;21.33;;;15.85;;
73113;SDS011;61301;51.956;5.876;2023-04-09T09:58:11;19.50;;;15.70;;
73113;SDS011;61301;51.956;5.876;2023-04-09T10:00:42;20.08;;;15.13;;
73113;SDS011;61301;51.956;5.876;2023-04-09T10:03:13;19.25;;;15.80;;
73113;SDS011;61301;51.956;5.876;2023-04-09T10:05:44;20.15;;;15.35;;
73113;SDS011;61301;51.956;5.876;2023-04-09T10:08:10;20.77;;;15.23;;
73113;SDS011;61301;51.956;5.876;2023-04-09T10:10:38;20.70;;;16.05;;
73113;SDS011;61301;51.956;5.876;2023-04-09T10:13:08;18.13;;;15.13;;
73113;SDS011;61301;51.956;5.876;2023-04-09T10:15:50;19.50;;;15.13;;
73113;SDS011;61301;51.956;5.876;2023-04-09T10:18:16;19.17;;;14.93;;
73113;SDS011;61301;51.956;5.876;2023-04-09T10:21:00;18.52;;;14.70;;
73113;SDS011;61301;51.956;5.876;2023-04-09T10:23:35;17.77;;;13.32;;
73113;SDS011;61301;51.956;5.876;2023-04-09T10:26:04;17.30;;;14.30;;
73113;SDS011;61301;51.956;5.876;2023-04-09T10:28:31;16.42;;;12.85;;
73113;SDS011;61301;51.956;5.876;2023-04-09T10:30:57;15.75;;;13.18;;
73113;SDS011;61301;51.956;5.876;2023-04-09T10:33:24;16.48;;;12.98;;
73113;SDS011;61301;51.956;5.876;2023-04-09T10:35:53;18.15;;;13.48;;
73113;SDS011;61301;51.956;5.876;2023-04-09T10:38:36;18.77;;;13.18;;
73113;SDS011;61301;51.956;5.876;2023-04-09T10:41:07;15.97;;;12.03;;
73113;SDS011;61301;51.956;5.876;2023-04-09T10:43:37;18.88;;;13.88;;
73113;SDS011;61301;51.956;5.876;2023-04-09T10:46:24;16.25;;;12.75;;
73113;SDS011;61301;51.956;5.876;2023-04-09T10:51:39;17.10;;;12.15;;
73113;SDS011;61301;51.956;5.876;2023-04-09T10:59:39;14.15;;;10.93;;
73113;SDS011;61301;51.956;5.876;2023-04-09T11:02:07;11.73;;;8.63;;
73113;SDS011;61301;51.956;5.876;2023-04-09T11:07:07;9.65;;;7.68;;
73113;SDS011;61301;51.956;5.876;2023-04-09T11:09:34;10.52;;;8.40;;
73113;SDS011;61301;51.956;5.876;2023-04-09T11:12:01;8.07;;;6.95;;
73113;SDS011;61301;51.956;5.876;2023-04-09T11:14:28;9.35;;;6.45;;
73113;SDS011;61301;51.956;5.876;2023-04-09T11:16:54;8.25;;;6.25;;
73113;SDS011;61301;51.956;5.876;2023-04-09T11:19:20;6.32;;;5.28;;
73113;SDS011;61301;51.956;5.876;2023-04-09T11:21:46;9.68;;;7.15;;
73113;SDS011;61301;51.956;5.876;2023-04-09T11:24:13;10.00;;;8.02;;
73113;SDS011;61301;51.956;5.876;2023-04-09T11:26:39;9.40;;;7.78;;
73113;SDS011;61301;51.956;5.876;2023-04-09T11:29:05;9.50;;;7.18;;
73113;SDS011;61301;51.956;5.876;2023-04-09T11:31:35;11.05;;;7.40;;
73113;SDS011;61301;51.956;5.876;2023-04-09T11:34:01;7.78;;;6.00;;
73113;SDS011;61301;51.956;5.876;2023-04-09T11:36:28;6.28;;;5.35;;
73113;SDS011;61301;51.956;5.876;2023-04-09T11:38:54;6.22;;;5.05;;
73113;SDS011;61301;51.956;5.876;2023-04-09T11:41:33;6.43;;;4.85;;
73113;SDS011;61301;51.956;5.876;2023-04-09T11:44:03;6.93;;;5.72;;
73113;SDS011;61301;51.956;5.876;2023-04-09T11:46:33;6.47;;;5.55;;
73113;SDS011;61301;51.956;5.876;2023-04-09T11:49:00;7.72;;;6.45;;
73113;SDS011;61301;51.956;5.876;2023-04-09T11:51:27;8.02;;;6.40;;
73113;SDS011;61301;51.956;5.876;2023-04-09T11:53:59;7.38;;;5.75;;
73113;SDS011;61301;51.956;5.876;2023-04-09T11:56:36;11.65;;;7.45;;
73113;SDS011;61301;51.956;5.876;2023-04-09T11:59:02;9.75;;;8.50;;
73113;SDS011;61301;51.956;5.876;2023-04-09T12:01:32;9.70;;;7.95;;
73113;SDS011;61301;51.956;5.876;2023-04-09T12:03:58;8.90;;;6.90;;
73113;SDS011;61301;51.956;5.876;2023-04-09T12:06:25;9.60;;;7.95;;
73113;SDS011;61301;51.956;5.876;2023-04-09T12:08:52;7.90;;;6.03;;
73113;SDS011;61301;51.956;5.876;2023-04-09T12:11:20;8.65;;;7.13;;
73113;SDS011;61301;51.956;5.876;2023-04-09T12:14:02;11.88;;;9.27;;
73113;SDS011;61301;51.956;5.876;2023-04-09T12:16:29;10.10;;;8.50;;
73113;SDS011;61301;51.956;5.876;2023-04-09T12:19:00;8.65;;;7.15;;
73113;SDS011;61301;51.956;5.876;2023-04-09T12:24:17;10.73;;;8.57;;
73113;SDS011;61301;51.956;5.876;2023-04-09T12:26:45;11.88;;;9.20;;
73113;SDS011;61301;51.956;5.876;2023-04-09T12:29:15;13.05;;;10.20;;
73113;SDS011;61301;51.956;5.876;2023-04-09T12:31:45;10.30;;;7.90;;
73113;SDS011;61301;51.956;5.876;2023-04-09T12:34:12;13.52;;;10.65;;
73113;SDS011;61301;51.956;5.876;2023-04-09T12:36:39;13.07;;;9.70;;
73113;SDS011;61301;51.956;5.876;2023-04-09T12:39:08;13.75;;;9.65;;
73113;SDS011;61301;51.956;5.876;2023-04-09T12:41:35;11.05;;;9.82;;
73113;SDS011;61301;51.956;5.876;2023-04-09T12:44:01;13.02;;;9.85;;
73113;SDS011;61301;51.956;5.876;2023-04-09T12:46:27;12.43;;;10.60;;
73113;SDS011;61301;51.956;5.876;2023-04-09T12:48:53;12.65;;;10.52;;
73113;SDS011;61301;51.956;5.876;2023-04-09T12:51:19;11.98;;;10.00;;
73113;SDS011;61301;51.956;5.876;2023-04-09T12:53:45;14.65;;;11.43;;
73113;SDS011;61301;51.956;5.876;2023-04-09T12:56:11;12.13;;;9.77;;
73113;SDS011;61301;51.956;5.876;2023-04-09T12:58:37;11.55;;;9.48;;
73113;SDS011;61301;51.956;5.876;2023-04-09T13:01:03;13.20;;;9.15;;
73113;SDS011;61301;51.956;5.876;2023-04-09T13:03:30;11.88;;;10.43;;
73113;SDS011;61301;51.956;5.876;2023-04-09T13:05:56;10.90;;;8.23;;
73113;SDS011;61301;51.956;5.876;2023-04-09T13:08:22;11.57;;;9.10;;
73113;SDS011;61301;51.956;5.876;2023-04-09T13:10:48;10.38;;;9.27;;
73113;SDS011;61301;51.956;5.876;2023-04-09T13:13:14;11.98;;;9.02;;
73113;SDS011;61301;51.956;5.876;2023-04-09T13:15:40;10.45;;;9.05;;
73113;SDS011;61301;51.956;5.876;2023-04-09T13:18:10;11.05;;;9.20;;
73113;SDS011;61301;51.956;5.876;2023-04-09T13:20:37;10.18;;;8.57;;
73113;SDS011;61301;51.956;5.876;2023-04-09T13:23:03;11.20;;;8.63;;
73113;SDS011;61301;51.956;5.876;2023-04-09T13:25:29;9.27;;;7.43;;
73113;SDS011;61301;51.956;5.876;2023-04-09T13:27:55;9.05;;;6.93;;
73113;SDS011;61301;51.956;5.876;2023-04-09T13:30:21;10.07;;;7.75;;
73113;SDS011;61301;51.956;5.876;2023-04-09T13:32:47;12.05;;;8.55;;
73113;SDS011;61301;51.956;5.876;2023-04-09T13:35:13;10.88;;;8.70;;
73113;SDS011;61301;51.956;5.876;2023-04-09T13:37:40;10.10;;;8.85;;
73113;SDS011;61301;51.956;5.876;2023-04-09T13:40:07;11.73;;;9.10;;
73113;SDS011;61301;51.956;5.876;2023-04-09T13:42:33;9.85;;;8.30;;
73113;SDS011;61301;51.956;5.876;2023-04-09T13:44:59;8.45;;;7.20;;
73113;SDS011;61301;51.956;5.876;2023-04-09T13:47:26;10.48;;;8.73;;
73113;SDS011;61301;51.956;5.876;2023-04-09T13:49:51;8.85;;;7.15;;
73113;SDS011;61301;51.956;5.876;2023-04-09T13:52:17;7.55;;;6.53;;
73113;SDS011;61301;51.956;5.876;2023-04-09T13:54:43;7.80;;;6.18;;
73113;SDS011;61301;51.956;5.876;2023-04-09T13:57:10;8.00;;;6.85;;
73113;SDS011;61301;51.956;5.876;2023-04-09T13:59:36;9.55;;;7.72;;
73113;SDS011;61301;51.956;5.876;2023-04-09T14:02:07;8.73;;;7.57;;
73113;SDS011;61301;51.956;5.876;2023-04-09T14:04:33;9.82;;;7.95;;
73113;SDS011;61301;51.956;5.876;2023-04-09T14:06:59;8.68;;;6.13;;
73113;SDS011;61301;51.956;5.876;2023-04-09T14:09:25;7.53;;;5.95;;
73113;SDS011;61301;51.956;5.876;2023-04-09T14:11:52;9.40;;;7.57;;
73113;SDS011;61301;51.956;5.876;2023-04-09T14:14:19;8.68;;;7.10;;
73113;SDS011;61301;51.956;5.876;2023-04-09T14:16:45;8.90;;;6.68;;
73113;SDS011;61301;51.956;5.876;2023-04-09T14:19:12;7.85;;;6.88;;
73113;SDS011;61301;51.956;5.876;2023-04-09T14:21:39;8.82;;;7.93;;
73113;SDS011;61301;51.956;5.876;2023-04-09T14:24:05;9.45;;;7.53;;
73113;SDS011;61301;51.956;5.876;2023-04-09T14:26:32;7.63;;;6.82;;
73113;SDS011;61301;51.956;5.876;2023-04-09T14:28:58;7.53;;;6.60;;
73113;SDS011;61301;51.956;5.876;2023-04-09T14:31:24;6.47;;;5.80;;
73113;SDS011;61301;51.956;5.876;2023-04-09T14:33:50;8.10;;;6.35;;
73113;SDS011;61301;51.956;5.876;2023-04-09T14:36:16;8.43;;;7.15;;
73113;SDS011;61301;51.956;5.876;2023-04-09T14:38:42;7.10;;;6.32;;
73113;SDS011;61301;51.956;5.876;2023-04-09T14:41:08;10.13;;;7.07;;
73113;SDS011;61301;51.956;5.876;2023-04-09T14:43:34;9.32;;;7.13;;
73113;SDS011;61301;51.956;5.876;2023-04-09T14:46:01;8.88;;;7.53;;
73113;SDS011;61301;51.956;5.876;2023-04-09T14:48:28;8.32;;;6.55;;
73113;SDS011;61301;51.956;5.876;2023-04-09T14:50:54;8.98;;;7.60;;
73113;SDS011;61301;51.956;5.876;2023-04-09T14:53:20;7.72;;;6.90;;
73113;SDS011;61301;51.956;5.876;2023-04-09T14:55:46;6.82;;;5.47;;
73113;SDS011;61301;51.956;5.876;2023-04-09T14:58:12;6.60;;;5.70;;
73113;SDS011;61301;51.956;5.876;2023-04-09T15:00:38;9.30;;;7.30;;
73113;SDS011;61301;51.956;5.876;2023-04-09T15:03:04;7.75;;;6.80;;